Time;durP1;ratioP1;P1;durP2;ratioP2;P2;SDS_P1;SDS_P2;PMS_P1;PMS_P2;Temp;Humidity;BMP_temperature;BMP_pressure;BME280_temperature;BME280_humidity;BME280_pressure;Samples;Min_cycle;Max_cycle;Signal;HPM_P1;HPM_P2
2022/04/06 00:02:23;;;;;;;;;;;;;;;23.84;61.07;96563.98;586104;242;66530;-68
2022/04/06 00:04:50;;;;;;;;;;;;;;;23.83;61.08;96569.67;586106;242;63063;-68
2022/04/06 00:07:17;;;;;;;;;;;;;;;23.84;61.22;96568.56;586118;242;66540;-68
2022/04/06 00:09:45;;;;;;;;;;;;;;;23.84;61.47;96568.56;586120;242;66634;-68
2022/04/06 00:12:12;;;;;;;;;;;;;;;23.83;61.45;96570.46;586172;242;63015;-68
2022/04/06 00:14:40;;;;;;;;;;;;;;;23.82;61.30;96570.77;586141;242;66648;-68
2022/04/06 00:17:08;;;;;;;;;;;;;;;23.82;61.13;96571.56;586121;242;68605;-68
2022/04/06 00:19:35;;;;;;;;;;;;;;;23.82;61.70;96568.09;586187;242;65303;-68
2022/04/06 00:22:03;;;;;;;;;;;;;;;23.82;62.11;96570.77;580567;242;68356;-68
2022/04/06 00:24:31;;;;;;;;;;;;;;;23.82;62.20;96570.77;575602;246;68547;-68
2022/04/06 00:26:58;;;;;;;;;;;;;;;23.80;62.60;96576.42;575563;246;65551;-68
2022/04/06 00:29:26;;;;;;;;;;;;;;;23.81;62.45;96580.69;575537;246;69920;-68
2022/04/06 00:31:53;;;;;;;;;;;;;;;23.80;61.44;96578.32;575518;246;68893;-68
2022/04/06 00:35:28;;;;;;;;;;;;;;;23.79;62.73;96584.77;575536;246;65486;-68
2022/04/06 00:36:50;;;;;;;;;;;;;;;23.78;61.37;96583.19;575136;246;66690;-68
2022/04/06 00:39:17;;;;;;;;;;;;;;;23.77;61.73;96584.29;575562;246;68777;-68
2022/04/06 00:41:45;;;;;;;;;;;;;;;23.78;61.87;96586.66;575544;246;65429;-68
2022/04/06 00:44:14;;;;;;;;;;;;;;;23.77;62.10;96585.08;575559;246;69734;-68
2022/04/06 00:46:43;;;;;;;;;;;;;;;23.76;61.67;96580.00;575553;246;68574;-67
2022/04/06 00:49:13;;;;;;;;;;;;;;;23.75;61.58;96587.26;575505;245;65336;-68
2022/04/06 00:51:42;;;;;;;;;;;;;;;23.75;61.63;96591.84;575558;246;68840;-67
2022/04/06 00:54:11;;;;;;;;;;;;;;;23.75;61.63;96581.10;575546;246;68984;-67
2022/04/06 00:56:39;;;;;;;;;;;;;;;23.74;61.16;96580.31;575530;244;63464;-67
2022/04/06 00:59:07;;;;;;;;;;;;;;;23.75;61.74;96583.79;575545;246;68688;-68
2022/04/06 01:01:34;;;;;;;;;;;;;;;23.75;61.96;96581.10;575558;246;68565;-67
2022/04/06 01:04:02;;;;;;;;;;;;;;;23.74;60.95;96580.31;575586;246;66122;-67
2022/04/06 01:06:30;;;;;;;;;;;;;;;23.74;61.69;96587.58;575564;246;68637;-67
2022/04/06 01:08:57;;;;;;;;;;;;;;;23.73;62.19;96583.28;575561;246;66485;-67
2022/04/06 01:11:25;;;;;;;;;;;;;;;23.72;61.39;96581.70;575515;246;63161;-67
2022/04/06 01:13:53;;;;;;;;;;;;;;;23.71;62.02;96580.92;575555;246;66654;-67
2022/04/06 01:16:21;;;;;;;;;;;;;;;23.72;62.17;96582.49;575560;246;66892;-67
2022/04/06 01:18:48;;;;;;;;;;;;;;;23.72;62.26;96576.34;575548;246;64174;-68
2022/04/06 01:21:16;;;;;;;;;;;;;;;23.70;62.25;96576.59;575508;245;66553;-67
2022/04/06 01:23:44;;;;;;;;;;;;;;;23.69;62.18;96575.80;575526;246;66418;-67
2022/04/06 01:26:13;;;;;;;;;;;;;;;23.69;62.93;96577.70;575525;246;65164;-67
2022/04/06 01:28:41;;;;;;;;;;;;;;;23.67;62.69;96575.30;575612;246;68924;-67
2022/04/06 01:31:10;;;;;;;;;;;;;;;23.68;62.80;96582.28;575547;246;68583;-68
2022/04/06 01:33:38;;;;;;;;;;;;;;;23.67;61.98;96577.98;575535;246;63184;-68
2022/04/06 01:36:07;;;;;;;;;;;;;;;23.68;61.93;96582.28;575433;246;68337;-68
2022/04/06 01:38:35;;;;;;;;;;;;;;;23.68;61.76;96576.09;575504;246;66734;-68
2022/04/06 01:41:03;;;;;;;;;;;;;;;23.67;61.98;96586.03;575565;246;65496;-68
2022/04/06 01:43:30;;;;;;;;;;;;;;;23.66;62.33;96579.09;575590;246;68840;-68
2022/04/06 01:45:59;;;;;;;;;;;;;;;23.65;62.21;96580.19;575551;246;68455;-68
2022/04/06 01:48:26;;;;;;;;;;;;;;;23.67;60.03;96588.72;575562;246;65649;-68
2022/04/06 01:53:39;;;;;;;;;;;;;;;23.66;60.38;96595.19;575554;246;66572;-68
2022/04/06 01:56:07;;;;;;;;;;;;;;;23.66;62.07;96592.50;575606;246;63191;-68
2022/04/06 01:58:34;;;;;;;;;;;;;;;23.66;62.03;96589.03;575561;246;68710;-67
2022/04/06 02:01:02;;;;;;;;;;;;;;;23.65;61.84;96596.29;575542;246;68787;-67
2022/04/06 02:03:29;;;;;;;;;;;;;;;23.65;62.39;96592.78;575514;246;62781;-67
2022/04/06 02:05:57;;;;;;;;;;;;;;;23.64;61.98;96591.21;575530;246;68663;-67
2022/04/06 02:08:24;;;;;;;;;;;;;;;23.63;62.40;96600.36;575587;244;66749;-67
2022/04/06 02:10:52;;;;;;;;;;;;;;;23.65;61.71;96598.16;575523;246;63051;-68
2022/04/06 02:13:20;;;;;;;;;;;;;;;23.62;62.03;96596.86;575559;246;68681;-67
2022/04/06 02:15:47;;;;;;;;;;;;;;;23.61;62.62;96595.28;575530;246;68992;-67
2022/04/06 02:18:15;;;;;;;;;;;;;;;23.62;63.21;96593.39;575543;246;65415;-67
2022/04/06 02:20:42;;;;;;;;;;;;;;;23.60;63.03;96593.70;575545;246;69020;-67
2022/04/06 02:23:10;;;;;;;;;;;;;;;23.61;62.07;96586.45;586032;242;68496;-68
2022/04/06 02:25:38;;;;;;;;;;;;;;;23.60;62.55;96595.56;586147;242;65467;-67
2022/04/06 02:28:05;;;;;;;;;;;;;;;23.60;61.80;96592.88;586153;242;66437;-67
2022/04/06 02:30:33;;;;;;;;;;;;;;;23.58;62.36;96590.52;586072;242;67088;-68
2022/04/06 02:33:00;;;;;;;;;;;;;;;23.57;62.83;96588.94;586101;242;62862;-67
2022/04/06 02:35:28;;;;;;;;;;;;;;;23.59;61.31;96588.63;586197;242;66727;-68
2022/04/06 02:37:55;;;;;;;;;;;;;;;23.58;62.53;96582.47;586153;242;66742;-67
2022/04/06 02:40:23;;;;;;;;;;;;;;;23.57;61.83;96591.62;586120;242;63244;-68
2022/04/06 02:42:50;;;;;;;;;;;;;;;23.59;62.96;96594.77;586163;242;66609;-67
2022/04/06 02:45:18;;;;;;;;;;;;;;;23.59;62.97;96593.98;586103;242;68793;-68
2022/04/06 02:47:45;;;;;;;;;;;;;;;23.57;62.74;96591.62;586204;242;65418;-67
2022/04/06 02:50:13;;;;;;;;;;;;;;;23.57;62.67;96594.30;586145;242;68564;-67
2022/04/06 02:52:40;;;;;;;;;;;;;;;23.55;62.19;96601.05;586121;242;68749;-67
2022/04/06 02:55:12;;;;;;;;;;;;;;;23.55;62.57;96598.38;586121;242;65364;-67
2022/04/06 02:57:37;;;;;;;;;;;;;;;23.53;63.02;96587.14;585977;242;69118;-67
2022/04/06 03:00:05;;;;;;;;;;;;;;;23.55;62.28;96601.05;586181;242;68661;-67
2022/04/06 03:02:32;;;;;;;;;;;;;;;23.53;62.62;96593.29;586138;242;65336;-67
2022/04/06 03:05:00;;;;;;;;;;;;;;;23.54;62.85;96602.91;586127;242;68844;-67
2022/04/06 03:07:27;;;;;;;;;;;;;;;23.53;62.57;96598.66;586155;242;68677;-67
2022/04/06 03:09:55;;;;;;;;;;;;;;;23.53;62.95;96595.97;586143;242;65331;-68
2022/04/06 03:12:22;;;;;;;;;;;;;;;23.54;62.10;96599.44;586211;242;68456;-67
2022/04/06 03:14:50;;;;;;;;;;;;;;;23.53;62.74;96611.28;586160;242;68698;-67
2022/04/06 03:17:17;;;;;;;;;;;;;;;23.52;62.31;96606.98;586162;242;65350;-67
2022/04/06 03:19:45;;;;;;;;;;;;;;;23.51;62.39;96606.20;586125;242;68332;-67
2022/04/06 03:22:17;;;;;;;;;;;;;;;23.49;61.95;96609.19;586102;242;68351;-67
2022/04/06 03:24:48;;;;;;;;;;;;;;;23.49;62.73;96606.51;586116;242;63104;-68
2022/04/06 03:27:15;;;;;;;;;;;;;;;23.49;62.07;96609.19;586191;242;68406;-68
2022/04/06 03:29:42;;;;;;;;;;;;;;;23.49;62.43;96611.88;586147;242;68513;-68
2022/04/06 03:32:10;;;;;;;;;;;;;;;23.49;62.62;96613.77;586157;242;65180;-68
2022/04/06 03:34:38;;;;;;;;;;;;;;;23.49;62.96;96611.08;586110;242;68410;-68
2022/04/06 03:37:06;;;;;;;;;;;;;;;23.48;63.26;96617.52;586128;242;68324;-67
2022/04/06 03:39:34;;;;;;;;;;;;;;;23.47;62.84;96619.41;586175;242;65558;-67
2022/04/06 03:42:01;;;;;;;;;;;;;;;23.46;63.21;96619.70;586100;242;68737;-67
2022/04/06 03:44:28;;;;;;;;;;;;;;;23.45;62.41;96616.22;586142;242;69201;-68
2022/04/06 03:46:56;;;;;;;;;;;;;;;23.45;63.52;96618.11;586128;242;62974;-69
2022/04/06 03:49:25;;;;;;;;;;;;;;;23.45;62.67;96620.80;586131;242;68945;-69
2022/04/06 03:51:53;;;;;;;;;;;;;;;23.45;62.87;96620.80;586137;242;66648;-69
2022/04/06 03:54:20;;;;;;;;;;;;;;;23.45;63.11;96623.48;586128;242;65399;-69
2022/04/06 03:56:48;;;;;;;;;;;;;;;23.43;63.15;96622.97;586134;242;68770;-70
2022/04/06 03:59:15;;;;;;;;;;;;;;;23.44;63.18;96627.27;586050;242;68600;-69
2022/04/06 04:01:43;;;;;;;;;;;;;;;23.42;63.48;96627.55;586155;242;65424;-69
2022/04/06 04:04:10;;;;;;;;;;;;;;;23.43;63.20;96628.34;586137;242;68676;-70
2022/04/06 04:06:38;;;;;;;;;;;;;;;23.43;62.50;96636.38;586111;242;68767;-70
2022/04/06 04:09:05;;;;;;;;;;;;;;;23.42;63.31;96627.55;586108;242;65469;-69
2022/04/06 04:11:33;;;;;;;;;;;;;;;23.42;63.15;96632.91;586108;242;69100;-70
2022/04/06 04:14:01;;;;;;;;;;;;;;;23.41;63.12;96630.54;586125;242;68806;-70
2022/04/06 04:16:28;;;;;;;;;;;;;;;23.41;62.97;96635.91;586205;242;63072;-70
2022/04/06 04:18:56;;;;;;;;;;;;;;;23.40;62.39;96632.41;586070;242;66659;-68
2022/04/06 04:21:32;;;;;;;;;;;;;;;23.40;63.18;96631.61;586108;242;68565;-70
2022/04/06 04:24:02;;;;;;;;;;;;;;;23.38;62.50;96637.29;586143;242;65343;-71
2022/04/06 04:26:29;;;;;;;;;;;;;;;23.38;62.88;96637.29;585923;242;66584;-70
2022/04/06 04:28:57;;;;;;;;;;;;;;;23.38;62.65;96645.33;586155;242;69000;-70
2022/04/06 04:31:25;;;;;;;;;;;;;;;23.39;63.40;96643.44;586068;242;63283;-69
2022/04/06 04:33:52;;;;;;;;;;;;;;;23.37;62.60;96634.89;586046;242;68897;-69
2022/04/06 04:36:20;;;;;;;;;;;;;;;23.36;63.20;96644.83;586087;242;68839;-69
2022/04/06 04:38:47;;;;;;;;;;;;;;;23.37;63.23;96645.61;586111;242;65870;-70
2022/04/06 04:41:15;;;;;;;;;;;;;;;23.37;62.51;96645.61;586037;242;68790;-70
2022/04/06 04:43:42;;;;;;;;;;;;;;;23.35;63.10;96643.22;586136;242;68682;-70
2022/04/06 04:46:10;;;;;;;;;;;;;;;23.34;62.98;96654.25;586084;242;65358;-70
2022/04/06 04:48:38;;;;;;;;;;;;;;;23.34;63.11;96652.36;586069;242;66441;-70
2022/04/06 04:51:05;;;;;;;;;;;;;;;23.36;62.60;96665.48;586120;242;66272;-70
2022/04/06 04:53:33;;;;;;;;;;;;;;;23.34;62.62;96659.61;586112;242;63165;-71
2022/04/06 04:56:00;;;;;;;;;;;;;;;23.35;63.18;96664.66;586121;242;69642;-71
2022/04/06 04:58:28;;;;;;;;;;;;;;;23.34;63.08;96670.34;586083;242;69001;-70
2022/04/06 05:00:55;;;;;;;;;;;;;;;23.33;63.11;96668.76;586050;242;65128;-71
2022/04/06 05:03:23;;;;;;;;;;;;;;;23.33;62.89;96677.59;586156;242;68770;-71
2022/04/06 05:05:53;;;;;;;;;;;;;;;23.32;62.99;96680.55;586138;242;68695;-71
2022/04/06 05:08:20;;;;;;;;;;;;;;;23.30;63.63;96686.23;586176;242;69995;-71
2022/04/06 05:10:47;;;;;;;;;;;;;;;23.30;63.04;96688.09;586101;242;68776;-71
2022/04/06 05:13:17;;;;;;;;;;;;;;;23.29;63.61;96694.55;586074;242;68624;-71
2022/04/06 05:15:45;;;;;;;;;;;;;;;23.30;63.17;96699.63;586135;242;65415;-69
2022/04/06 05:18:13;;;;;;;;;;;;;;;23.30;64.02;96709.53;586156;242;66291;-69
2022/04/06 05:20:40;;;;;;;;;;;;;;;23.29;63.71;96707.95;586176;242;66536;-69
2022/04/06 05:23:08;;;;;;;;;;;;;;;23.28;62.53;96709.05;586116;242;63000;-69
2022/04/06 05:25:36;;;;;;;;;;;;;;;23.28;63.33;96706.38;586091;242;67643;-69
2022/04/06 05:28:03;;;;;;;;;;;;;;;23.28;62.78;96722.46;586152;242;66550;-69
2022/04/06 05:30:32;;;;;;;;;;;;;;;23.26;63.36;96712.80;586131;242;65202;-69
2022/04/06 05:32:59;;;;;;;;;;;;;;;23.25;63.40;96708.55;586148;242;66486;-69
2022/04/06 05:35:27;;;;;;;;;;;;;;;23.26;63.32;96709.34;586161;242;66510;-69
2022/04/06 05:37:57;;;;;;;;;;;;;;;23.26;63.63;96717.38;586132;242;65417;-69
2022/04/06 05:40:25;;;;;;;;;;;;;;;23.26;63.57;96709.34;586142;242;68894;-69
2022/04/06 05:42:52;;;;;;;;;;;;;;;23.25;64.24;96718.48;586151;242;68570;-69
2022/04/06 05:45:20;;;;;;;;;;;;;;;23.22;64.10;96714.50;586046;242;65559;-69
2022/04/06 05:47:47;;;;;;;;;;;;;;;23.23;64.49;96716.08;586121;242;68652;-69
2022/04/06 05:50:15;;;;;;;;;;;;;;;23.23;63.77;96717.97;586110;242;68660;-69
2022/04/06 05:52:44;;;;;;;;;;;;;;;23.22;63.76;96717.17;586050;242;65443;-69
2022/04/06 05:55:11;;;;;;;;;;;;;;;23.21;63.79;96723.61;586154;242;69715;-69
2022/04/06 05:57:39;;;;;;;;;;;;;;;23.20;64.62;96716.66;586130;242;68753;-67
2022/04/06 06:00:08;;;;;;;;;;;;;;;23.20;64.21;96716.66;586004;239;65695;-69
2022/04/06 06:02:38;;;;;;;;;;;;;;;23.21;63.91;96726.29;592464;239;39701;-69
2022/04/06 06:05:06;;;;;;;;;;;;;;;23.20;63.48;96721.23;592367;239;67387;-67
2022/04/06 06:07:33;;;;;;;;;;;;;;;23.19;63.56;96719.62;592326;239;63036;-69
2022/04/06 06:10:02;;;;;;;;;;;;;;;23.17;62.91;96719.14;592241;239;66775;-69
2022/04/06 06:12:30;;;;;;;;;;;;;;;23.17;62.75;96719.14;592474;239;69016;-70
2022/04/06 06:14:58;;;;;;;;;;;;;;;23.16;62.14;96714.84;592463;239;65022;-71
2022/04/06 06:17:31;;;;;;;;;;;;;;;23.15;61.78;96719.42;592448;239;66712;-71
2022/04/06 06:19:56;;;;;;;;;;;;;;;23.16;61.07;96715.67;592242;239;66675;-71
2022/04/06 06:22:25;;;;;;;;;;;;;;;23.17;61.58;96716.46;589662;239;65303;-71
2022/04/06 06:24:56;;;;;;;;;;;;;;;23.16;60.67;96715.67;588329;241;68706;-68
2022/04/06 06:27:25;;;;;;;;;;;;;;;23.16;60.71;96718.35;588310;241;68770;-70
2022/04/06 06:29:53;;;;;;;;;;;;;;;23.15;60.29;96714.06;588370;241;65170;-70
2022/04/06 06:32:27;;;;;;;;;;;;;;;23.15;59.82;96710.59;588301;241;68359;-70
2022/04/06 06:34:52;;;;;;;;;;;;;;;23.14;59.77;96707.12;588142;241;68623;-70
2022/04/06 06:37:23;;;;;;;;;;;;;;;23.14;60.59;96711.69;588132;241;42566;-70
2022/04/06 06:39:54;;;;;;;;;;;;;;;23.12;60.11;96703.92;588287;239;50207;-70
2022/04/06 06:42:22;;;;;;;;;;;;;;;23.13;59.36;96704.72;588252;241;68799;-70
2022/04/06 06:44:49;;;;;;;;;;;;;;;23.11;59.86;96707.70;588313;241;66275;-69
2022/04/06 06:47:17;;;;;;;;;;;;;;;23.09;59.63;96709.08;588305;241;68819;-69
2022/04/06 06:49:46;;;;;;;;;;;;;;;23.08;60.18;96702.94;588135;241;47009;-70
2022/04/06 06:52:14;;;;;;;;;;;;;;;23.09;60.10;96699.16;588348;240;65496;-70
2022/04/06 06:54:42;;;;;;;;;;;;;;;23.10;59.51;96706.09;588291;241;68850;-70
2022/04/06 06:57:11;;;;;;;;;;;;;;;23.09;59.03;96701.05;588209;241;68401;-70
2022/04/06 06:59:39;;;;;;;;;;;;;;;23.10;59.77;96703.41;588312;241;65311;-70
2022/04/06 07:02:07;;;;;;;;;;;;;;;23.09;57.58;96693.80;588266;241;66561;-70
2022/04/06 07:04:34;;;;;;;;;;;;;;;23.07;59.89;96695.96;588292;241;66902;-55
2022/04/06 07:07:02;;;;;;;;;;;;;;;23.07;59.99;96695.96;588366;241;65284;-69
2022/04/06 07:09:29;;;;;;;;;;;;;;;23.06;59.08;96705.10;588329;241;68803;-70
2022/04/06 07:11:57;;;;;;;;;;;;;;;23.07;59.71;96701.32;588256;241;69372;-68
2022/04/06 07:14:26;;;;;;;;;;;;;;;23.07;59.76;96695.96;588323;241;62963;-66
2022/04/06 07:16:54;;;;;;;;;;;;;;;23.06;59.46;96699.73;588314;241;66274;-68
2022/04/06 07:19:21;;;;;;;;;;;;;;;23.07;59.84;96695.17;588335;241;68142;-70
2022/04/06 07:21:49;;;;;;;;;;;;;;;23.03;58.57;96695.75;588227;241;63021;-70
2022/04/06 07:24:17;;;;;;;;;;;;;;;23.04;59.07;96707.27;588207;240;66337;-64
2022/04/06 07:26:45;;;;;;;;;;;;;;;23.03;58.55;96700.33;588213;241;68748;-69
2022/04/06 07:29:15;;;;;;;;;;;;;;;23.02;52.85;96701.39;588293;241;65199;-68
2022/04/06 07:31:43;;;;;;;;;;;;;;;23.04;58.90;96696.55;588312;241;68325;-71
2022/04/06 07:34:11;;;;;;;;;;;;;;;22.98;55.08;96698.51;588317;241;68520;-72
2022/04/06 07:36:39;;;;;;;;;;;;;;;23.00;57.67;96698.23;588244;241;65626;-72
2022/04/06 07:39:08;;;;;;;;;;;;;;;23.00;57.60;96695.55;588073;241;50890;-69
2022/04/06 07:41:36;;;;;;;;;;;;;;;23.02;58.12;96698.72;588244;241;68572;-74
2022/04/06 07:44:07;;;;;;;;;;;;;;;23.00;58.05;96696.34;588247;240;42808;-74
2022/04/06 07:46:38;;;;;;;;;;;;;;;23.00;58.48;96701.70;588326;241;66165;-72
2022/04/06 07:49:07;;;;;;;;;;;;;;;22.99;59.63;96700.09;588316;241;68586;-72
2022/04/06 07:51:36;;;;;;;;;;;;;;;23.00;59.46;96698.23;588268;241;65445;-73
2022/04/06 07:54:06;;;;;;;;;;;;;;;23.00;57.93;96699.02;588132;240;51407;-74
2022/04/06 07:56:33;;;;;;;;;;;;;;;22.99;58.76;96693.94;588238;241;68605;-74
2022/04/06 07:59:03;;;;;;;;;;;;;;;22.98;59.47;96703.88;588052;241;46974;-74
2022/04/06 08:01:30;;;;;;;;;;;;;;;22.99;59.50;96697.41;588201;241;66558;-73
2022/04/06 08:04:00;;;;;;;;;;;;;;;23.01;60.04;96705.17;588168;240;45675;-74
2022/04/06 08:06:27;;;;;;;;;;;;;;;22.99;59.73;96700.09;588155;241;65422;-73
2022/04/06 08:08:56;;;;;;;;;;;;;;;22.99;59.94;96693.94;587978;241;68899;-73
2022/04/06 08:11:24;;;;;;;;;;;;;;;22.98;59.73;96703.88;588261;241;68547;-73
2022/04/06 08:13:51;;;;;;;;;;;;;;;22.98;59.37;96701.19;588268;241;65466;-77
2022/04/06 08:16:19;;;;;;;;;;;;;;;23.00;59.77;96703.59;588245;241;68802;-75
2022/04/06 08:18:48;;;;;;;;;;;;;;;22.99;59.73;96694.73;588319;241;68558;-71
2022/04/06 08:21:25;;;;;;;;;;;;;;;22.95;56.80;96709.78;587820;238;65249;-71
2022/04/06 08:23:55;;;;;;;;;;;;;;;22.96;55.50;96703.36;586287;242;68877;-71
2022/04/06 08:26:23;;;;;;;;;;;;;;;22.97;59.14;96704.14;586436;242;68664;-71
2022/04/06 08:28:53;;;;;;;;;;;;;;;22.96;58.46;96705.25;586147;240;65137;-71
2022/04/06 08:31:21;;;;;;;;;;;;;;;22.97;58.72;96698.79;586311;242;68864;-71
2022/04/06 08:33:49;;;;;;;;;;;;;;;22.97;60.85;96704.14;586388;242;66303;-71
2022/04/06 08:36:17;;;;;;;;;;;;;;;22.97;57.18;96696.93;586262;242;63018;-71
2022/04/06 08:38:46;;;;;;;;;;;;;;;22.96;58.03;96694.53;586291;242;46233;-71
2022/04/06 08:41:14;;;;;;;;;;;;;;;22.95;59.31;96687.55;586346;242;68818;-72
2022/04/06 08:43:43;;;;;;;;;;;;;;;22.96;59.75;96689.95;586402;242;44837;-72
2022/04/06 08:46:11;;;;;;;;;;;;;;;22.96;59.17;96684.59;586391;242;66537;-70
2022/04/06 08:48:39;;;;;;;;;;;;;;;22.96;58.47;96683.81;586383;242;66506;-70
2022/04/06 08:51:09;;;;;;;;;;;;;;;22.97;59.57;96686.20;586293;242;63324;-71
2022/04/06 08:53:40;;;;;;;;;;;;;;;22.99;58.23;96680.54;586421;242;68752;-70
2022/04/06 08:56:09;;;;;;;;;;;;;;;22.99;58.96;96683.22;586321;242;66600;-69
2022/04/06 08:58:36;;;;;;;;;;;;;;;22.99;58.59;96683.22;586328;242;65358;-72
2022/04/06 09:01:04;;;;;;;;;;;;;;;22.96;57.72;96679.23;586428;242;69318;-71
2022/04/06 09:03:31;;;;;;;;;;;;;;;22.95;57.00;96671.48;586348;242;68785;-70
2022/04/06 09:06:02;;;;;;;;;;;;;;;22.95;57.92;96671.48;586412;242;65600;-71
2022/04/06 09:08:39;;;;;;;;;;;;;;;22.96;58.06;96667.73;585795;242;47880;-71
2022/04/06 09:11:07;;;;;;;;;;;;;;;22.98;57.16;96670.92;586079;242;68861;-71
2022/04/06 09:13:35;;;;;;;;;;;;;;;22.98;57.90;96665.56;586407;242;64258;-71
2022/04/06 09:16:04;;;;;;;;;;;;;;;22.98;55.95;96666.35;586401;242;66785;-71
2022/04/06 09:18:34;;;;;;;;;;;;;;;22.97;56.85;96659.41;586408;242;68660;-72
2022/04/06 09:21:01;;;;;;;;;;;;;;;22.99;58.84;96656.42;586366;239;63044;-73
2022/04/06 09:23:33;;;;;;;;;;;;;;;23.00;61.22;96650.78;588379;241;69543;-73
2022/04/06 09:26:04;;;;;;;;;;;;;;;23.00;59.85;96644.63;588294;241;68652;-74
2022/04/06 09:28:32;;;;;;;;;;;;;;;23.02;59.42;96640.55;588375;241;65277;-75
2022/04/06 09:31:00;;;;;;;;;;;;;;;23.03;60.58;96636.80;588332;241;66777;-74
2022/04/06 09:33:30;;;;;;;;;;;;;;;23.05;60.31;96641.84;588236;240;66494;-74
2022/04/06 09:35:59;;;;;;;;;;;;;;;23.07;60.54;96631.64;588145;241;48103;-74
2022/04/06 09:38:31;;;;;;;;;;;;;;;23.08;60.94;96629.75;588357;241;68772;-73
2022/04/06 09:41:04;;;;;;;;;;;;;;;23.07;59.80;96626.27;588183;241;68690;-77
2022/04/06 09:43:32;;;;;;;;;;;;;;;23.08;60.58;96613.66;588285;241;65369;-73
2022/04/06 09:49:05;;;;;;;;;;;;;;;23.09;60.14;96617.95;588347;241;68327;-80
2022/04/06 09:51:33;;;;;;;;;;;;;;;23.09;60.36;96610.70;588425;241;65976;-73
2022/04/06 09:54:02;;;;;;;;;;;;;;;23.09;61.30;96602.66;588276;241;68679;-76
2022/04/06 09:56:32;;;;;;;;;;;;;;;23.10;60.87;96612.28;588021;241;68944;-78
2022/04/06 09:59:01;;;;;;;;;;;;;;;23.11;61.14;96599.67;588290;241;65489;-77
2022/04/06 10:01:33;;;;;;;;;;;;;;;23.10;60.68;96604.24;587668;241;66645;-79
2022/04/06 10:04:03;;;;;;;;;;;;;;;23.11;61.43;96610.39;588060;241;68354;-77
2022/04/06 10:06:32;;;;;;;;;;;;;;;23.11;61.49;96600.49;588058;241;65194;-76
2022/04/06 10:09:02;;;;;;;;;;;;;;;23.12;61.16;96595.92;587887;241;50588;-71
2022/04/06 10:11:30;;;;;;;;;;;;;;;23.12;61.59;96596.71;588265;241;68637;-69
2022/04/06 10:14:04;;;;;;;;;;;;;;;23.12;60.92;96593.23;588359;241;65181;-71
2022/04/06 10:16:28;;;;;;;;;;;;;;;23.12;60.26;96588.67;588069;241;68547;-71
2022/04/06 10:18:56;;;;;;;;;;;;;;;23.12;60.66;96583.31;587972;241;68696;-71
2022/04/06 10:21:37;;;;;;;;;;;;;;;23.13;61.26;96584.89;587713;239;65159;-71
2022/04/06 10:24:13;;;;;;;;;;;;;;;23.11;60.41;96584.41;586261;242;68848;-71
2022/04/06 10:26:45;;;;;;;;;;;;;;;23.12;60.77;96580.63;586401;242;66558;-72
2022/04/06 10:29:12;;;;;;;;;;;;;;;23.12;60.40;96579.84;586286;242;63169;-72
2022/04/06 10:31:40;;;;;;;;;;;;;;;23.13;59.80;96574.16;586415;242;68683;-72
2022/04/06 10:34:30;;;;;;;;;;;;;;;23.13;60.93;96568.80;586373;242;68843;-70
2022/04/06 10:37:06;;;;;;;;;;;;;;;23.12;60.14;96572.59;586152;242;65378;-70
2022/04/06 10:39:57;;;;;;;;;;;;;;;23.12;60.11;96564.55;586403;242;69120;-69
2022/04/06 10:42:35;;;;;;;;;;;;;;;23.13;60.01;96566.13;586307;242;69089;-72
2022/04/06 10:45:07;;;;;;;;;;;;;;;23.13;60.42;96560.77;586303;242;64635;-72
2022/04/06 10:47:33;;;;;;;;;;;;;;;23.15;60.11;96563.95;586209;242;68886;-73
2022/04/06 10:50:03;;;;;;;;;;;;;;;23.14;59.76;96557.02;586410;242;68584;-73
2022/04/06 10:52:30;;;;;;;;;;;;;;;23.14;57.57;96559.69;585427;242;65380;-72
2022/04/06 10:54:59;;;;;;;;;;;;;;;23.17;60.12;96558.31;586384;242;68664;-72
2022/04/06 10:57:28;;;;;;;;;;;;;;;23.17;60.68;96555.63;585973;242;68508;-67
2022/04/06 11:00:13;;;;;;;;;;;;;;;23.16;58.64;96557.52;585466;242;65375;-71
2022/04/06 11:02:50;;;;;;;;;;;;;;;23.20;58.41;96553.14;586339;242;69065;-72
2022/04/06 11:05:40;;;;;;;;;;;;;;;23.21;59.96;96545.89;586277;242;68648;-72
2022/04/06 11:10:50;;;;;;;;;;;;;;;23.23;59.04;96535.67;586353;242;66531;-71
2022/04/06 11:13:24;;;;;;;;;;;;;;;23.25;59.36;96536.97;586259;242;57302;-64
2022/04/06 11:15:52;;;;;;;;;;;;;;;23.26;60.73;96521.67;586362;242;65580;-63
2022/04/06 11:18:39;;;;;;;;;;;;;;;23.26;59.82;96527.82;586391;242;68883;-72
2022/04/06 11:21:12;;;;;;;;;;;;;;;23.27;59.64;96523.25;586596;241;68596;-72
2022/04/06 11:23:39;;;;;;;;;;;;;;;23.30;59.48;96524.54;588354;241;65334;-72
2022/04/06 11:26:07;;;;;;;;;;;;;;;23.30;59.25;96516.50;588273;241;69058;-72
2022/04/06 11:28:34;;;;;;;;;;;;;;;23.31;58.29;96510.85;588335;241;66289;-72
2022/04/06 11:31:03;;;;;;;;;;;;;;;23.33;58.64;96507.88;588343;241;63053;-72
2022/04/06 11:33:34;;;;;;;;;;;;;;;23.34;59.60;96504.89;588240;241;54013;-71
2022/04/06 11:36:03;;;;;;;;;;;;;;;23.35;59.22;96497.63;587873;241;66304;-71
2022/04/06 11:38:33;;;;;;;;;;;;;;;23.36;59.59;96496.56;587501;241;65188;-71
2022/04/06 11:41:01;;;;;;;;;;;;;;;23.36;59.93;96493.88;588148;241;67843;-71
2022/04/06 11:43:28;;;;;;;;;;;;;;;23.37;58.16;96490.09;588269;241;66202;-70
2022/04/06 11:45:57;;;;;;;;;;;;;;;23.38;58.55;96487.13;588369;241;65486;-73
2022/04/06 11:48:25;;;;;;;;;;;;;;;23.38;59.76;96481.77;588258;241;69376;-69
2022/04/06 11:50:52;;;;;;;;;;;;;;;23.40;59.98;96484.12;588382;241;69219;-70
2022/04/06 11:53:21;;;;;;;;;;;;;;;23.40;59.52;96484.12;588270;241;65385;-70
2022/04/06 11:55:53;;;;;;;;;;;;;;;23.41;58.97;96477.69;588286;241;66498;-72
2022/04/06 11:58:31;;;;;;;;;;;;;;;23.40;59.97;96476.88;588310;241;66551;-72
2022/04/06 12:01:03;;;;;;;;;;;;;;;23.40;60.26;96474.19;588283;241;65296;-72
2022/04/06 12:03:31;;;;;;;;;;;;;;;23.41;59.99;96464.28;588096;241;69966;-72
2022/04/06 12:05:59;;;;;;;;;;;;;;;23.42;60.07;96479.27;588303;241;66498;-73
2022/04/06 12:08:27;;;;;;;;;;;;;;;23.41;60.78;96475.80;588293;241;63047;-73
2022/04/06 12:10:59;;;;;;;;;;;;;;;23.42;60.36;96474.70;588284;241;68814;-73
2022/04/06 12:13:28;;;;;;;;;;;;;;;23.42;60.33;96463.18;588353;241;68498;-74
2022/04/06 12:15:55;;;;;;;;;;;;;;;23.44;60.13;96463.68;588292;241;65366;-71
2022/04/06 12:18:24;;;;;;;;;;;;;;;23.43;60.68;96462.86;588394;241;69702;-69
2022/04/06 12:20:55;;;;;;;;;;;;;;;23.43;59.39;96460.18;588344;241;68192;-72
2022/04/06 12:23:26;;;;;;;;;;;;;;;23.42;58.81;96452.45;586309;240;46361;-71
2022/04/06 12:25:58;;;;;;;;;;;;;;;23.44;58.20;96447.59;586320;242;68882;-72
2022/04/06 12:28:29;;;;;;;;;;;;;;;23.44;59.99;96453.74;586374;242;66872;-71
2022/04/06 12:30:58;;;;;;;;;;;;;;;23.45;60.26;96449.17;586412;242;65246;-71
2022/04/06 12:33:42;;;;;;;;;;;;;;;23.44;59.85;96445.70;586405;242;68818;-73
2022/04/06 12:36:19;;;;;;;;;;;;;;;23.45;60.40;96436.55;586130;242;68710;-72
2022/04/06 12:39:04;;;;;;;;;;;;;;;23.45;60.01;96430.39;586334;242;63942;-73
2022/04/06 12:41:33;;;;;;;;;;;;;;;23.45;59.63;96428.50;586397;242;68831;-73
2022/04/06 12:44:04;;;;;;;;;;;;;;;23.45;60.26;96422.35;586411;242;66776;-74
2022/04/06 12:46:42;;;;;;;;;;;;;;;23.44;60.83;96426.14;586366;242;65238;-73
2022/04/06 12:49:27;;;;;;;;;;;;;;;23.44;61.17;96418.88;586347;242;69276;-72
2022/04/06 12:52:08;;;;;;;;;;;;;;;23.44;60.22;96415.41;586361;242;68595;-73
2022/04/06 12:54:37;;;;;;;;;;;;;;;23.44;61.05;96412.73;585144;242;62942;-72
2022/04/06 12:57:14;;;;;;;;;;;;;;;23.44;60.96;96412.73;575355;246;68907;-72
2022/04/06 12:59:39;;;;;;;;;;;;;;;23.43;61.36;96411.13;575037;244;66551;-72
2022/04/06 13:02:08;;;;;;;;;;;;;;;23.42;60.62;96406.87;575468;246;65221;-72
2022/04/06 13:04:39;;;;;;;;;;;;;;;23.43;60.58;96405.77;575306;245;68781;-71
2022/04/06 13:07:07;;;;;;;;;;;;;;;23.43;60.85;96409.23;575475;246;66535;-75